createdAt,value
2022-10-04T00:00:48.816Z,10.82
2022-10-04T00:01:48.889Z,10.84
2022-10-04T00:02:48.830Z,10.85
2022-10-04T00:03:48.751Z,10.81
2022-10-04T00:04:48.724Z,10.84
2022-10-04T00:05:48.701Z,10.97
2022-10-04T00:06:48.676Z,10.92
2022-10-04T00:07:48.653Z,10.92
2022-10-04T00:08:48.630Z,10.96
2022-10-04T00:09:48.604Z,10.99
2022-10-04T00:10:48.589Z,10.92
2022-10-04T00:11:48.560Z,10.91
2022-10-04T00:12:48.537Z,10.92
2022-10-04T00:13:48.523Z,11.00
2022-10-04T00:14:48.491Z,10.96
2022-10-04T00:15:48.525Z,11.04
2022-10-04T00:16:48.439Z,11.02
2022-10-04T00:17:48.438Z,11.03
2022-10-04T00:18:48.395Z,11.02
2022-10-04T00:19:48.370Z,11.02
2022-10-04T00:20:48.346Z,11.04
2022-10-04T00:21:48.321Z,11.02
2022-10-04T00:22:48.309Z,11.02
2022-10-04T00:23:48.279Z,10.92
2022-10-04T00:24:48.250Z,10.91
2022-10-04T00:25:48.226Z,10.82
2022-10-04T00:26:48.204Z,10.67
2022-10-04T00:27:48.181Z,10.60
2022-10-04T00:28:48.157Z,10.53
2022-10-04T00:29:48.131Z,10.64
2022-10-04T00:30:48.110Z,10.67
2022-10-04T00:31:48.139Z,10.67
2022-10-04T00:32:48.066Z,10.74
2022-10-04T00:33:48.058Z,10.79
2022-10-04T00:34:48.016Z,10.78
2022-10-04T00:35:47.991Z,10.64
2022-10-04T00:36:47.969Z,10.66
2022-10-04T00:37:47.944Z,10.76
2022-10-04T00:38:47.921Z,10.76
2022-10-04T00:39:47.897Z,10.67
2022-10-04T00:40:47.873Z,10.71
2022-10-04T00:41:47.850Z,10.76
2022-10-04T00:42:47.826Z,10.70
2022-10-04T00:43:47.800Z,10.78
2022-10-04T00:44:47.777Z,10.91
2022-10-04T00:45:47.786Z,10.86
2022-10-04T00:46:47.731Z,10.96
2022-10-04T00:47:47.706Z,10.85
2022-10-04T00:48:47.685Z,10.86
2022-10-04T00:49:47.678Z,10.88
2022-10-04T00:50:47.636Z,10.81
2022-10-04T00:51:47.610Z,10.96
2022-10-04T00:52:47.590Z,10.99
2022-10-04T00:53:47.566Z,10.92
2022-10-04T00:54:47.540Z,11.00
2022-10-04T00:55:47.517Z,11.04
2022-10-04T00:56:47.494Z,11.04
2022-10-04T00:57:47.473Z,11.06
2022-10-04T00:58:47.453Z,11.02
2022-10-04T00:59:47.425Z,10.96
2022-10-04T01:00:47.451Z,10.84
2022-10-04T01:01:47.449Z,10.82
2022-10-04T01:02:47.355Z,10.76
2022-10-04T01:03:47.330Z,10.66
2022-10-04T01:04:47.305Z,10.68
2022-10-04T01:05:47.303Z,10.70
2022-10-04T01:06:47.259Z,10.70
2022-10-04T01:07:47.233Z,10.81
2022-10-04T01:08:47.215Z,10.76
2022-10-04T01:09:47.192Z,10.78
2022-10-04T01:10:47.163Z,10.76
2022-10-04T01:11:47.138Z,10.94
2022-10-04T01:12:47.117Z,11.00
2022-10-04T01:13:47.089Z,10.96
2022-10-04T01:14:47.066Z,11.09
2022-10-04T01:15:47.103Z,11.09
2022-10-04T01:16:47.020Z,11.11
2022-10-04T01:17:46.996Z,11.15
2022-10-04T01:18:46.986Z,11.09
2022-10-04T01:19:46.953Z,10.92
2022-10-04T01:20:46.928Z,11.03
2022-10-04T01:21:46.928Z,10.88
2022-10-04T01:22:46.884Z,10.97
2022-10-04T01:23:46.855Z,11.03
2022-10-04T01:24:46.832Z,11.07
2022-10-04T01:25:46.812Z,11.06
2022-10-04T01:26:46.786Z,11.09
2022-10-04T01:27:46.761Z,11.15
2022-10-04T01:28:46.741Z,11.21
2022-10-04T01:29:46.712Z,11.25
2022-10-04T01:30:46.691Z,11.29
2022-10-04T01:31:46.855Z,11.33
2022-10-04T01:32:46.644Z,11.39
2022-10-04T01:33:46.619Z,11.32
2022-10-04T01:34:46.594Z,11.39
2022-10-04T01:35:46.573Z,11.33
2022-10-04T01:36:46.550Z,11.40
2022-10-04T01:37:46.549Z,11.19
2022-10-04T01:38:46.500Z,11.19
2022-10-04T01:39:46.482Z,11.17
2022-10-04T01:40:46.455Z,11.07
2022-10-04T01:41:46.434Z,11.11
2022-10-04T01:42:46.406Z,11.07
2022-10-04T01:43:46.383Z,11.15
2022-10-04T01:44:46.358Z,11.07
2022-10-04T01:45:46.336Z,11.15
2022-10-04T01:46:46.352Z,11.11
2022-10-04T01:47:46.295Z,11.21
2022-10-04T01:48:46.264Z,11.11
2022-10-04T01:49:46.241Z,11.21
2022-10-04T01:50:46.218Z,11.27
2022-10-04T01:51:46.195Z,11.27
2022-10-04T01:52:46.169Z,11.25
2022-10-04T01:53:46.168Z,11.35
2022-10-04T01:54:46.127Z,11.36
2022-10-04T01:55:46.100Z,11.33
2022-10-04T01:56:46.077Z,11.33
2022-10-04T01:57:46.053Z,11.35
2022-10-04T01:58:46.028Z,11.47
2022-10-04T01:59:46.004Z,11.39
2022-10-04T02:00:46.066Z,11.44
2022-10-04T02:01:46.387Z,11.49
2022-10-04T02:02:45.936Z,11.51
2022-10-04T02:03:45.965Z,11.40
2022-10-04T02:04:45.912Z,11.46
2022-10-04T02:05:45.863Z,11.36
2022-10-04T02:06:45.856Z,11.33
2022-10-04T02:07:45.818Z,11.32
2022-10-04T02:08:45.793Z,11.27
2022-10-04T02:09:45.792Z,11.21
2022-10-04T02:10:45.755Z,11.10
2022-10-04T02:11:45.723Z,11.09
2022-10-04T02:12:45.700Z,11.04
2022-10-04T02:13:45.675Z,11.11
2022-10-04T02:14:45.654Z,11.14
2022-10-04T02:15:45.699Z,11.11
2022-10-04T02:16:45.606Z,11.15
2022-10-04T02:17:45.580Z,11.15
2022-10-04T02:18:45.558Z,11.14
2022-10-04T02:19:45.536Z,11.18
2022-10-04T02:20:45.513Z,11.15
2022-10-04T02:21:45.488Z,11.19
2022-10-04T02:22:45.465Z,11.27
2022-10-04T02:23:45.440Z,11.24
2022-10-04T02:24:45.455Z,11.28
2022-10-04T02:25:45.415Z,11.25
2022-10-04T02:26:45.370Z,11.32
2022-10-04T02:27:45.346Z,11.27
2022-10-04T02:28:45.321Z,11.32
2022-10-04T02:29:45.296Z,11.18
2022-10-04T02:30:45.267Z,11.27
2022-10-04T02:31:45.664Z,11.28
2022-10-04T02:32:45.230Z,11.22
2022-10-04T02:33:45.202Z,11.24
2022-10-04T02:34:45.180Z,11.17
2022-10-04T02:35:45.154Z,11.24
2022-10-04T02:36:45.132Z,11.10
2022-10-04T02:37:45.108Z,11.18
2022-10-04T02:38:45.090Z,11.15
2022-10-04T02:39:45.062Z,11.15
2022-10-04T02:40:45.041Z,11.18
2022-10-04T02:41:45.035Z,11.17
2022-10-04T02:42:44.993Z,11.18
2022-10-04T02:43:44.967Z,11.25
2022-10-04T02:44:44.945Z,11.28
2022-10-04T02:45:44.921Z,11.29
2022-10-04T02:46:44.944Z,11.32
2022-10-04T02:47:44.874Z,11.27
2022-10-04T02:48:44.850Z,11.32
2022-10-04T02:49:44.825Z,11.32
2022-10-04T02:50:44.804Z,11.32
2022-10-04T02:51:44.778Z,11.35
2022-10-04T02:52:44.758Z,11.33
2022-10-04T02:53:44.731Z,11.35
2022-10-04T02:54:44.708Z,11.39
2022-10-04T02:55:44.683Z,11.37
2022-10-04T02:56:44.661Z,11.33
2022-10-04T02:57:44.664Z,11.33
2022-10-04T02:58:44.613Z,11.36
2022-10-04T02:59:44.590Z,11.42
2022-10-04T03:00:44.623Z,11.33
2022-10-04T03:01:45.014Z,11.32
2022-10-04T03:02:44.588Z,11.09
2022-10-04T03:03:44.496Z,11.14
2022-10-04T03:04:44.476Z,10.99
2022-10-04T03:05:44.450Z,10.99
2022-10-04T03:06:44.431Z,10.94
2022-10-04T03:07:44.404Z,10.92
2022-10-04T03:08:44.376Z,10.88
2022-10-04T03:09:44.352Z,10.88
2022-10-04T03:10:44.331Z,10.89
2022-10-04T03:11:44.558Z,10.97
2022-10-04T03:12:44.284Z,11.04
2022-10-04T03:13:44.286Z,11.06
2022-10-04T03:14:44.238Z,10.91
2022-10-04T03:15:44.242Z,10.94
2022-10-04T03:16:44.190Z,11.10
2022-10-04T03:17:44.163Z,11.04
2022-10-04T03:18:44.143Z,11.06
2022-10-04T03:19:44.118Z,11.10
2022-10-04T03:20:44.095Z,11.06
2022-10-04T03:21:44.261Z,11.11
2022-10-04T03:22:46.937Z,11.10
2022-10-04T03:23:44.025Z,11.11
2022-10-04T03:24:43.998Z,11.11
2022-10-04T03:25:43.975Z,11.11
2022-10-04T03:26:43.954Z,11.14
2022-10-04T03:27:43.930Z,11.17
2022-10-04T03:28:43.904Z,11.11
2022-10-04T03:29:43.905Z,11.17
2022-10-04T03:30:43.858Z,11.09
2022-10-04T03:31:44.365Z,11.06
2022-10-04T03:32:43.808Z,11.00
2022-10-04T03:33:43.785Z,11.04
2022-10-04T03:34:43.762Z,10.94
2022-10-04T03:35:43.738Z,10.86
2022-10-04T03:36:43.715Z,10.76
2022-10-04T03:37:43.693Z,10.71
2022-10-04T03:38:43.668Z,10.76
2022-10-04T03:39:43.644Z,10.79
2022-10-04T03:40:43.620Z,10.71
2022-10-04T03:41:43.799Z,10.76
2022-10-04T03:42:43.574Z,10.79
2022-10-04T03:43:43.548Z,10.79
2022-10-04T03:44:43.527Z,10.84
2022-10-04T03:45:43.584Z,10.86
2022-10-04T03:46:43.477Z,10.78
2022-10-04T03:47:43.454Z,10.91
2022-10-04T03:48:43.431Z,10.84
2022-10-04T03:49:46.273Z,10.94
2022-10-04T03:50:43.383Z,10.92
2022-10-04T03:51:43.589Z,10.89
2022-10-04T03:52:43.343Z,10.89
2022-10-04T03:53:43.586Z,10.88
2022-10-04T03:54:43.289Z,10.88
2022-10-04T03:55:43.266Z,10.89
2022-10-04T03:56:43.242Z,10.85
2022-10-04T03:57:43.218Z,10.85
2022-10-04T03:58:43.196Z,10.91
2022-10-04T03:59:43.171Z,10.92
2022-10-04T04:00:43.232Z,10.92
2022-10-04T04:01:43.450Z,10.99
2022-10-04T04:02:45.952Z,11.02
2022-10-04T04:03:43.075Z,10.97
2022-10-04T04:04:43.048Z,10.97
2022-10-04T04:05:43.031Z,10.97
2022-10-04T04:06:43.006Z,10.91
2022-10-04T04:07:42.980Z,10.94
2022-10-04T04:08:42.954Z,10.96
2022-10-04T04:09:42.931Z,10.96
2022-10-04T04:10:42.909Z,10.97
2022-10-04T04:11:43.164Z,11.02
2022-10-04T04:12:42.858Z,11.02
2022-10-04T04:13:42.835Z,11.02
2022-10-04T04:14:42.811Z,11.00
2022-10-04T04:15:42.799Z,11.02
2022-10-04T04:16:42.809Z,11.00
2022-10-04T04:17:42.763Z,10.97
2022-10-04T04:18:42.716Z,11.00
2022-10-04T04:19:42.695Z,11.00
2022-10-04T04:20:42.669Z,10.99
2022-10-04T04:21:42.979Z,10.97
2022-10-04T04:22:42.622Z,11.00
2022-10-04T04:23:42.599Z,10.96
2022-10-04T04:24:42.573Z,10.94
2022-10-04T04:25:42.559Z,10.89
2022-10-04T04:26:42.528Z,10.91
2022-10-04T04:27:42.507Z,10.91
2022-10-04T04:28:42.478Z,10.91
2022-10-04T04:29:42.469Z,10.91
2022-10-04T04:30:42.432Z,10.82
2022-10-04T04:31:42.743Z,10.81
2022-10-04T04:32:42.386Z,10.89
2022-10-04T04:33:42.382Z,10.86
2022-10-04T04:34:42.336Z,10.91
2022-10-04T04:35:42.315Z,10.89
2022-10-04T04:36:42.289Z,10.89
2022-10-04T04:37:42.268Z,10.94
2022-10-04T04:38:42.240Z,10.85
2022-10-04T04:39:42.220Z,10.91
2022-10-04T04:40:42.196Z,10.94
2022-10-04T04:41:45.677Z,10.82
2022-10-04T04:42:42.146Z,10.82
2022-10-04T04:43:42.124Z,10.66
2022-10-04T04:44:42.099Z,10.70
2022-10-04T04:45:42.113Z,10.67
2022-10-04T04:46:42.095Z,10.67
2022-10-04T04:47:42.029Z,10.67
2022-10-04T04:48:42.003Z,10.66
2022-10-04T04:49:42.001Z,10.64
2022-10-04T04:50:41.958Z,10.55
2022-10-04T04:51:42.210Z,10.52
2022-10-04T04:52:41.914Z,10.38
2022-10-04T04:53:41.890Z,10.48
2022-10-04T04:54:41.861Z,10.45
2022-10-04T04:56:02.424Z,10.41
2022-10-04T04:56:41.813Z,10.55
2022-10-04T04:57:41.790Z,10.51
2022-10-04T04:58:41.764Z,10.47
2022-10-04T04:59:41.744Z,10.48
2022-10-04T05:00:41.743Z,10.48
2022-10-04T05:01:41.990Z,10.45
2022-10-04T05:02:41.668Z,10.53
2022-10-04T05:03:41.649Z,10.48
2022-10-04T05:04:41.624Z,10.48
2022-10-04T05:05:41.721Z,10.51
2022-10-04T05:06:41.573Z,10.55
2022-10-04T05:07:41.550Z,10.52
2022-10-04T05:08:41.717Z,10.47
2022-10-04T05:09:41.503Z,10.47
2022-10-04T05:10:41.478Z,10.51
2022-10-04T05:11:41.762Z,10.52
2022-10-04T05:12:41.429Z,10.52
2022-10-04T05:13:41.407Z,10.55
2022-10-04T05:14:41.385Z,10.52
2022-10-04T05:15:41.360Z,10.52
2022-10-04T05:16:41.508Z,10.53
2022-10-04T05:17:41.317Z,10.52
2022-10-04T05:18:41.286Z,10.47
2022-10-04T05:19:41.265Z,10.53
2022-10-04T05:20:41.239Z,10.44
2022-10-04T05:21:42.929Z,10.52
2022-10-04T05:22:41.194Z,10.53
2022-10-04T05:23:41.168Z,10.55
2022-10-04T05:24:41.145Z,10.51
2022-10-04T05:25:41.120Z,10.52
2022-10-04T05:26:41.099Z,10.45
2022-10-04T05:27:41.071Z,10.42
2022-10-04T05:28:41.049Z,10.45
2022-10-04T05:29:41.023Z,10.53
2022-10-04T05:30:41.000Z,10.47
2022-10-04T05:31:41.362Z,10.42
2022-10-04T05:32:40.950Z,10.51
2022-10-04T05:33:40.928Z,10.48
2022-10-04T05:34:40.905Z,10.52
2022-10-04T05:35:40.882Z,10.52
2022-10-04T05:36:40.855Z,10.53
2022-10-04T05:37:40.854Z,10.44
2022-10-04T05:38:40.809Z,10.51
2022-10-04T05:39:40.786Z,10.52
2022-10-04T05:40:40.761Z,10.48
2022-10-04T05:41:40.736Z,10.51
2022-10-04T05:42:40.712Z,10.48
2022-10-04T05:43:40.689Z,10.52
2022-10-04T05:44:40.665Z,10.55
2022-10-04T05:45:40.701Z,10.51
2022-10-04T05:46:43.949Z,10.52
2022-10-04T05:47:40.596Z,10.52
2022-10-04T05:48:40.568Z,10.44
2022-10-04T05:49:40.549Z,10.56
2022-10-04T05:50:40.521Z,10.55
2022-10-04T05:51:40.891Z,10.55
2022-10-04T05:52:40.475Z,10.47
2022-10-04T05:53:40.468Z,10.41
2022-10-04T05:54:40.427Z,10.41
2022-10-04T05:55:40.400Z,10.36
2022-10-04T05:56:40.377Z,10.36
2022-10-04T05:57:40.352Z,10.44
2022-10-04T05:58:40.332Z,10.38
2022-10-04T05:59:40.308Z,10.38
2022-10-04T06:00:40.282Z,10.45
2022-10-04T06:01:40.368Z,10.48
2022-10-04T06:02:40.285Z,10.41
2022-10-04T06:03:40.210Z,10.44
2022-10-04T06:04:40.184Z,10.48
2022-10-04T06:05:40.160Z,10.45
2022-10-04T06:06:40.135Z,10.45
2022-10-04T06:07:40.114Z,10.45
2022-10-04T06:08:40.090Z,10.40
2022-10-04T06:09:40.091Z,10.45
2022-10-04T06:10:40.040Z,10.38
2022-10-04T06:11:40.149Z,10.25
2022-10-04T06:12:44.129Z,10.22
2022-10-04T06:13:39.969Z,10.17
2022-10-04T06:14:39.941Z,10.11
2022-10-04T06:15:39.924Z,10.18
2022-10-04T06:16:39.933Z,10.22
2022-10-04T06:17:39.875Z,10.17
2022-10-04T06:18:39.849Z,10.20
2022-10-04T06:19:39.826Z,10.17
2022-10-04T06:20:39.801Z,10.20
2022-10-04T06:21:39.930Z,10.23
2022-10-04T06:22:39.751Z,10.25
2022-10-04T06:23:39.743Z,10.26
2022-10-04T06:24:39.703Z,10.26
2022-10-04T06:25:39.699Z,10.26
2022-10-04T06:26:39.657Z,10.32
2022-10-04T06:27:39.634Z,10.30
2022-10-04T06:28:39.677Z,10.38
2022-10-04T06:29:39.587Z,10.41
2022-10-04T06:30:39.682Z,10.38
2022-10-04T06:31:39.547Z,10.41
2022-10-04T06:32:39.512Z,10.41
2022-10-04T06:33:39.495Z,10.36
2022-10-04T06:34:39.467Z,10.38
2022-10-04T06:35:39.447Z,10.53
2022-10-04T06:36:39.416Z,10.53
2022-10-04T06:37:39.397Z,10.52
2022-10-04T06:38:39.372Z,10.44
2022-10-04T06:39:39.346Z,10.55
2022-10-04T06:40:39.322Z,10.66
2022-10-04T06:41:39.315Z,10.67
2022-10-04T06:42:39.272Z,10.61
2022-10-04T06:43:39.250Z,10.60
2022-10-04T06:44:42.238Z,10.60
2022-10-04T06:45:39.221Z,10.67
2022-10-04T06:46:39.179Z,10.73
2022-10-04T06:47:39.156Z,10.76
2022-10-04T06:48:39.131Z,10.71
2022-10-04T06:49:39.104Z,10.82
2022-10-04T06:50:39.081Z,10.82
2022-10-04T06:51:39.067Z,10.82
2022-10-04T06:52:39.031Z,10.96
2022-10-04T06:53:39.007Z,10.99
2022-10-04T06:54:38.989Z,11.03
2022-10-04T06:55:38.961Z,11.02
2022-10-04T06:56:38.936Z,11.09
2022-10-04T06:57:38.941Z,11.07
2022-10-04T06:58:38.891Z,11.11
2022-10-04T06:59:38.867Z,11.07
2022-10-04T07:00:38.841Z,11.09
2022-10-04T07:01:38.888Z,11.15
2022-10-04T07:02:38.888Z,11.21
2022-10-04T07:03:38.770Z,11.21
2022-10-04T07:05:06.276Z,11.25
2022-10-04T07:05:38.725Z,11.25
2022-10-04T07:06:38.700Z,11.35
2022-10-04T07:07:38.744Z,11.33
2022-10-04T07:08:38.651Z,11.35
2022-10-04T07:09:38.631Z,11.36
2022-10-04T07:10:38.610Z,11.43
2022-10-04T07:11:38.590Z,11.47
2022-10-04T07:12:38.562Z,11.44
2022-10-04T07:13:38.566Z,11.44
2022-10-04T07:14:38.509Z,11.47
2022-10-04T07:15:38.587Z,11.44
2022-10-04T07:16:38.462Z,11.49
2022-10-04T07:17:38.435Z,11.49
2022-10-04T07:18:38.416Z,11.58
2022-10-04T07:19:38.394Z,11.58
2022-10-04T07:20:38.367Z,11.67
2022-10-04T07:21:38.341Z,11.57
2022-10-04T07:22:38.329Z,11.67
2022-10-04T07:23:38.295Z,11.69
2022-10-04T07:24:38.272Z,11.75
2022-10-04T07:25:38.253Z,11.67
2022-10-04T07:26:38.225Z,11.78
2022-10-04T07:27:38.201Z,11.75
2022-10-04T07:28:38.308Z,11.78
2022-10-04T07:29:41.904Z,11.80
2022-10-04T07:30:38.192Z,11.78
2022-10-04T07:31:38.109Z,11.83
2022-10-04T07:32:38.082Z,11.96
2022-10-04T07:33:38.059Z,11.94
2022-10-04T07:34:38.036Z,11.90
2022-10-04T07:35:38.013Z,11.96
2022-10-04T07:36:37.988Z,11.96
2022-10-04T07:37:37.972Z,12.04
2022-10-04T07:38:37.941Z,12.05
2022-10-04T07:39:37.922Z,12.12
2022-10-04T07:40:37.895Z,12.13
2022-10-04T07:41:37.872Z,12.12
2022-10-04T07:42:37.846Z,12.13
2022-10-04T07:43:37.827Z,12.10
2022-10-04T07:44:37.801Z,12.09
2022-10-04T07:45:37.820Z,12.10
2022-10-04T07:46:37.755Z,12.21
2022-10-04T07:47:37.735Z,12.19
2022-10-04T07:48:37.706Z,12.28
2022-10-04T07:49:37.685Z,12.34
2022-10-04T07:50:37.662Z,12.31
2022-10-04T07:51:37.638Z,12.41
2022-10-04T07:52:37.613Z,12.38
2022-10-04T07:53:37.591Z,12.35
2022-10-04T07:54:37.565Z,12.38
2022-10-04T07:55:37.544Z,12.37
2022-10-04T07:56:37.519Z,12.49
2022-10-04T07:57:37.500Z,12.49
2022-10-04T07:58:39.312Z,12.41
2022-10-04T07:59:37.454Z,12.52
2022-10-04T08:00:37.426Z,12.41
2022-10-04T08:01:37.468Z,12.49
2022-10-04T08:02:37.547Z,12.47
2022-10-04T08:03:37.413Z,12.54
2022-10-04T08:04:37.332Z,12.53
2022-10-04T08:05:37.316Z,12.49
2022-10-04T08:06:37.295Z,12.53
2022-10-04T08:07:37.269Z,12.54
2022-10-04T08:08:37.253Z,12.56
2022-10-04T08:09:37.219Z,12.64
2022-10-04T08:10:37.196Z,12.65
2022-10-04T08:11:37.171Z,12.60
2022-10-04T08:12:37.143Z,12.62
2022-10-04T08:13:37.136Z,12.56
2022-10-04T08:14:37.101Z,12.56
2022-10-04T08:15:37.168Z,12.68
2022-10-04T08:16:37.061Z,12.59
2022-10-04T08:17:37.053Z,12.57
2022-10-04T08:18:37.013Z,12.64
2022-10-04T08:19:36.985Z,12.68
2022-10-04T08:20:36.961Z,12.65
2022-10-04T08:21:36.937Z,12.67
2022-10-04T08:22:36.915Z,12.65
2022-10-04T08:23:36.890Z,12.67
2022-10-04T08:24:36.872Z,12.70
2022-10-04T08:25:36.848Z,12.77
2022-10-04T08:26:36.835Z,12.71
2022-10-04T08:27:36.797Z,12.74
2022-10-04T08:28:36.854Z,12.78
2022-10-04T08:29:36.752Z,12.85
2022-10-04T08:30:36.728Z,12.77
2022-10-04T08:31:36.705Z,12.77
2022-10-04T08:32:36.682Z,12.82
2022-10-04T08:33:36.680Z,12.85
2022-10-04T08:34:36.636Z,12.93
2022-10-04T08:35:36.645Z,12.96
2022-10-04T08:36:36.593Z,12.96
2022-10-04T08:37:36.566Z,13.04
2022-10-04T08:38:36.543Z,13.05
2022-10-04T08:39:36.518Z,13.04
2022-10-04T08:40:36.508Z,13.12
2022-10-04T08:41:36.471Z,13.11
2022-10-04T08:42:36.450Z,13.03
2022-10-04T08:43:36.435Z,13.05
2022-10-04T08:44:36.403Z,13.05
2022-10-04T08:45:36.382Z,13.17
2022-10-04T08:46:36.440Z,13.28
2022-10-04T08:47:36.333Z,13.25
2022-10-04T08:48:36.315Z,13.29
2022-10-04T08:49:36.300Z,13.32
2022-10-04T08:50:36.264Z,13.33
2022-10-04T08:51:36.242Z,13.39
2022-10-04T08:52:36.224Z,13.42
2022-10-04T08:53:36.195Z,13.42
2022-10-04T08:54:36.182Z,13.51
2022-10-04T08:55:36.150Z,13.62
2022-10-04T08:56:36.125Z,13.57
2022-10-04T08:57:36.109Z,13.67
2022-10-04T08:58:36.077Z,13.71
2022-10-04T08:59:36.054Z,13.70
2022-10-04T09:00:36.032Z,13.70
2022-10-04T09:01:36.030Z,13.73
2022-10-04T09:02:36.051Z,13.78
2022-10-04T09:03:35.957Z,13.82
2022-10-04T09:04:35.944Z,13.77
2022-10-04T09:05:35.944Z,13.79
2022-10-04T09:06:35.894Z,13.79
2022-10-04T09:07:35.872Z,13.85
2022-10-04T09:08:35.850Z,13.85
2022-10-04T09:09:35.823Z,13.96
2022-10-04T09:10:35.807Z,13.97
2022-10-04T09:11:35.781Z,14.02
2022-10-04T09:12:35.758Z,13.99
2022-10-04T09:13:35.736Z,14.04
2022-10-04T09:14:35.713Z,14.07
2022-10-04T09:15:35.749Z,14.18
2022-10-04T09:16:35.670Z,14.22
2022-10-04T09:17:35.644Z,14.28
2022-10-04T09:18:35.627Z,14.22
2022-10-04T09:19:35.594Z,14.35
2022-10-04T09:20:39.797Z,14.45
2022-10-04T09:21:35.590Z,14.39
2022-10-04T09:22:35.528Z,14.58
2022-10-04T09:23:35.505Z,14.60
2022-10-04T09:24:35.483Z,14.51
2022-10-04T09:25:35.461Z,14.64
2022-10-04T09:26:35.441Z,14.61
2022-10-04T09:27:54.177Z,14.58
2022-10-04T09:28:35.413Z,14.69
2022-10-04T09:29:35.372Z,14.70
2022-10-04T09:30:35.348Z,14.77
2022-10-04T09:31:35.484Z,14.81
2022-10-04T09:32:35.305Z,14.83
2022-10-04T09:33:35.277Z,14.88
2022-10-04T09:34:37.606Z,14.95
2022-10-04T09:35:35.233Z,14.95
2022-10-04T09:36:35.210Z,14.94
2022-10-04T09:37:35.205Z,15.09
2022-10-04T09:38:35.169Z,15.02
2022-10-04T09:39:35.143Z,15.10
2022-10-04T09:40:35.127Z,15.16
2022-10-04T09:41:35.099Z,15.16
2022-10-04T09:42:35.079Z,15.27
2022-10-04T09:43:35.056Z,15.29
2022-10-04T09:44:35.041Z,15.31
2022-10-04T09:45:35.018Z,15.23
2022-10-04T09:46:35.125Z,15.27
2022-10-04T09:47:34.963Z,15.27
2022-10-04T09:48:34.943Z,15.36
2022-10-04T09:49:34.918Z,15.36
2022-10-04T09:50:34.899Z,15.36
2022-10-04T09:51:34.872Z,15.38
2022-10-04T09:52:34.859Z,15.38
2022-10-04T09:53:34.853Z,15.38
2022-10-04T09:54:34.806Z,15.38
2022-10-04T09:55:34.784Z,15.53
2022-10-04T09:56:34.762Z,15.54
2022-10-04T09:57:34.740Z,15.46
2022-10-04T09:58:34.717Z,15.47
2022-10-04T09:59:34.697Z,15.50
2022-10-04T10:00:34.674Z,15.51
2022-10-04T10:01:34.755Z,15.56
2022-10-04T10:02:34.706Z,15.50
2022-10-04T10:03:34.607Z,15.59
2022-10-04T10:04:34.581Z,15.64
2022-10-04T10:05:34.563Z,15.69
2022-10-04T10:06:34.537Z,15.67
2022-10-04T10:07:34.516Z,15.72
2022-10-04T10:08:34.490Z,15.75
2022-10-04T10:09:34.496Z,15.80
2022-10-04T10:10:34.452Z,15.87
2022-10-04T10:11:34.430Z,15.90
2022-10-04T10:12:34.404Z,16.01
2022-10-04T10:13:34.386Z,16.04
2022-10-04T10:14:34.361Z,16.04
2022-10-04T10:15:34.423Z,16.09
2022-10-04T10:16:34.321Z,16.07
2022-10-04T10:17:34.295Z,16.15
2022-10-04T10:18:34.274Z,16.12
2022-10-04T10:19:34.254Z,16.05
2022-10-04T10:20:34.226Z,16.17
2022-10-04T10:21:34.209Z,16.24
2022-10-04T10:22:34.185Z,16.24
2022-10-04T10:23:34.160Z,16.30
2022-10-04T10:24:34.142Z,16.39
2022-10-04T10:25:34.154Z,16.34
2022-10-04T10:26:34.097Z,16.38
2022-10-04T10:27:34.075Z,16.35
2022-10-04T10:28:34.190Z,16.38
2022-10-04T10:29:34.030Z,16.48
2022-10-04T10:30:34.009Z,16.43
2022-10-04T10:31:34.102Z,16.46
2022-10-04T10:32:33.969Z,16.50
2022-10-04T10:33:33.941Z,16.49
2022-10-04T10:34:33.921Z,16.43
2022-10-04T10:35:33.899Z,16.49
2022-10-04T10:36:33.880Z,16.48
2022-10-04T10:37:33.863Z,16.53
2022-10-04T10:38:33.838Z,16.56
2022-10-04T10:39:33.815Z,16.63
2022-10-04T10:40:33.799Z,16.63
2022-10-04T10:41:33.793Z,16.67
2022-10-04T10:42:33.745Z,16.71
2022-10-04T10:43:33.725Z,16.70
2022-10-04T10:44:33.703Z,16.79
2022-10-04T10:45:33.682Z,16.88
2022-10-04T10:46:33.721Z,16.79
2022-10-04T10:47:33.649Z,16.89
2022-10-04T10:48:33.618Z,16.98
2022-10-04T10:49:33.594Z,16.96
2022-10-04T10:50:33.575Z,16.91
2022-10-04T10:51:33.553Z,16.96
2022-10-04T10:52:33.535Z,16.98
2022-10-04T10:53:33.511Z,16.97
2022-10-04T10:54:33.489Z,16.98
2022-10-04T10:55:33.467Z,17.06
2022-10-04T10:56:33.444Z,17.11
2022-10-04T10:57:33.445Z,17.00
2022-10-04T10:58:33.399Z,17.07
2022-10-04T10:59:33.379Z,17.06
2022-10-04T11:00:33.356Z,17.07
2022-10-04T11:01:33.447Z,17.08
2022-10-04T11:02:48.675Z,17.12
2022-10-04T11:03:33.451Z,17.11
2022-10-04T11:04:33.272Z,17.15
2022-10-04T11:05:33.250Z,17.11
2022-10-04T11:06:33.228Z,17.08
2022-10-04T11:07:33.208Z,17.16
2022-10-04T11:08:33.185Z,17.25
2022-10-04T11:09:33.166Z,17.15
2022-10-04T11:10:33.147Z,17.18
2022-10-04T11:11:33.126Z,17.23
2022-10-04T11:12:33.099Z,17.31
2022-10-04T11:13:33.123Z,17.28
2022-10-04T11:14:33.064Z,17.33
2022-10-04T11:15:33.034Z,17.34
2022-10-04T11:16:33.088Z,17.22
2022-10-04T11:17:33.002Z,17.31
2022-10-04T11:18:32.973Z,17.37
2022-10-04T11:19:32.950Z,17.34
2022-10-04T11:20:32.932Z,17.38
2022-10-04T11:21:32.907Z,17.34
2022-10-04T11:22:38.057Z,17.34
2022-10-04T11:23:32.867Z,17.31
2022-10-04T11:24:32.844Z,17.38
2022-10-04T11:25:32.821Z,17.30
2022-10-04T11:26:32.805Z,17.34
2022-10-04T11:27:32.782Z,17.41
2022-10-04T11:28:32.766Z,17.36
2022-10-04T11:29:32.759Z,17.46
2022-10-04T11:30:32.719Z,17.48
2022-10-04T11:31:32.784Z,17.49
2022-10-04T11:32:32.673Z,17.54
2022-10-04T11:33:32.650Z,17.58
2022-10-04T11:34:32.630Z,17.58
2022-10-04T11:35:32.610Z,17.58
2022-10-04T11:36:32.591Z,17.62
2022-10-04T11:37:32.566Z,17.58
2022-10-04T11:38:32.547Z,17.70
2022-10-04T11:39:32.523Z,17.68
2022-10-04T11:40:32.505Z,17.66
2022-10-04T11:41:32.482Z,17.74
2022-10-04T11:42:32.462Z,17.68
2022-10-04T11:43:32.442Z,17.75
2022-10-04T11:44:32.419Z,17.75
2022-10-04T11:45:32.419Z,17.72
2022-10-04T11:46:32.420Z,17.71
2022-10-04T11:47:32.355Z,17.87
2022-10-04T11:48:32.333Z,17.86
2022-10-04T11:49:32.313Z,17.78
2022-10-04T11:50:32.296Z,17.86
2022-10-04T11:51:32.271Z,17.82
2022-10-04T11:52:32.253Z,17.81
2022-10-04T11:53:32.235Z,17.87
2022-10-04T11:54:32.214Z,17.84
2022-10-04T11:55:32.194Z,17.86
2022-10-04T11:56:32.166Z,17.86
2022-10-04T11:57:32.145Z,17.84
2022-10-04T11:58:32.128Z,17.82
2022-10-04T11:59:32.107Z,17.82
2022-10-04T12:00:32.080Z,17.95
2022-10-04T12:01:32.099Z,17.89
2022-10-04T12:02:32.040Z,17.90
2022-10-04T12:03:32.124Z,17.93
2022-10-04T12:04:32.061Z,17.99
2022-10-04T12:05:31.974Z,17.99
2022-10-04T12:06:31.958Z,17.96
2022-10-04T12:07:31.938Z,17.95
2022-10-04T12:08:31.913Z,17.89
2022-10-04T12:09:31.892Z,17.89
2022-10-04T12:10:31.873Z,17.96
2022-10-04T12:11:31.851Z,17.96
2022-10-04T12:12:31.830Z,17.95
2022-10-04T12:13:31.806Z,18.00
2022-10-04T12:14:31.789Z,18.10
2022-10-04T12:15:31.768Z,18.14
2022-10-04T12:16:31.787Z,18.10
2022-10-04T12:17:31.746Z,18.18
2022-10-04T12:18:31.705Z,18.15
2022-10-04T12:19:31.687Z,18.15
2022-10-04T12:20:31.662Z,18.17
2022-10-04T12:21:31.639Z,18.21
2022-10-04T12:22:31.620Z,18.29
2022-10-04T12:23:31.600Z,18.33
2022-10-04T12:24:31.578Z,18.30
2022-10-04T12:25:31.559Z,18.26
2022-10-04T12:26:31.538Z,18.26
2022-10-04T12:27:31.513Z,18.27
2022-10-04T12:28:31.544Z,18.23
2022-10-04T12:29:31.477Z,18.23
2022-10-04T12:30:31.453Z,18.25
2022-10-04T12:31:31.466Z,18.21
2022-10-04T12:32:31.411Z,18.21
2022-10-04T12:33:31.413Z,18.26
2022-10-04T12:34:31.374Z,18.23
2022-10-04T12:35:31.349Z,18.23
2022-10-04T12:36:31.345Z,18.18
2022-10-04T12:37:31.307Z,18.20
2022-10-04T12:38:31.285Z,18.25
2022-10-04T12:39:31.266Z,18.37
2022-10-04T12:40:31.243Z,18.44
2022-10-04T12:41:31.227Z,18.44
2022-10-04T12:42:32.644Z,18.47
2022-10-04T12:43:31.185Z,18.44
2022-10-04T12:44:31.161Z,18.55
2022-10-04T12:45:31.163Z,18.55
2022-10-04T12:46:31.125Z,18.55
2022-10-04T12:47:31.099Z,18.48
2022-10-04T12:48:31.078Z,18.52
2022-10-04T12:49:31.084Z,18.62
2022-10-04T12:50:31.036Z,18.63
2022-10-04T12:51:31.018Z,18.63
2022-10-04T12:52:30.994Z,18.58